createdAt,value
2023-03-26T00:01:36.861Z,98044.40
2023-03-26T00:04:06.758Z,98045.60
2023-03-26T00:06:39.997Z,98042.60
2023-03-26T00:09:10.698Z,98043.60
2023-03-26T00:11:38.622Z,98039.00
2023-03-26T00:14:06.522Z,98036.00
2023-03-26T00:16:34.423Z,98027.40
2023-03-26T00:19:02.710Z,98036.80
2023-03-26T00:21:30.747Z,98029.60
2023-03-26T00:24:04.430Z,98030.40
2023-03-26T00:26:34.073Z,98031.60
2023-03-26T00:29:03.702Z,98027.60
2023-03-26T00:31:31.845Z,98027.20
2023-03-26T00:34:03.322Z,98020.20
2023-03-26T00:36:31.250Z,98017.40
2023-03-26T00:38:59.111Z,98011.40
2023-03-26T00:41:31.082Z,98010.40
2023-03-26T00:43:59.939Z,98005.00
2023-03-26T00:46:30.760Z,98003.40
2023-03-26T00:49:00.088Z,98003.20
2023-03-26T00:51:28.354Z,98005.40
2023-03-26T00:53:56.950Z,98010.40
2023-03-26T00:56:25.114Z,98006.60
2023-03-26T00:58:52.934Z,98000.60
2023-03-26T01:01:30.573Z,98003.40
2023-03-26T01:04:19.491Z,98005.40
2023-03-26T01:06:47.437Z,98000.00
2023-03-26T01:09:18.972Z,97999.00
2023-03-26T01:11:48.547Z,97987.80
2023-03-26T01:14:23.818Z,97986.80
2023-03-26T01:16:55.349Z,97985.80
2023-03-26T01:19:45.225Z,97989.00
2023-03-26T01:22:20.993Z,97988.60
2023-03-26T01:24:54.192Z,97988.60
2023-03-26T01:27:25.711Z,97986.20
2023-03-26T01:29:56.472Z,97982.60
2023-03-26T01:32:33.605Z,97984.20
2023-03-26T01:35:20.673Z,97982.60
2023-03-26T01:38:39.458Z,97982.80
2023-03-26T01:41:14.170Z,97975.60
2023-03-26T01:44:16.709Z,97975.00
2023-03-26T01:46:44.759Z,97971.40
2023-03-26T01:49:15.638Z,97972.80
2023-03-26T01:51:43.591Z,97968.00
2023-03-26T01:54:16.963Z,97965.40
2023-03-26T01:57:11.560Z,97967.20
2023-03-26T01:59:57.618Z,97968.60
2023-03-26T02:02:55.040Z,97963.80
2023-03-26T02:05:36.151Z,97967.60
2023-03-26T02:08:35.559Z,97966.20
2023-03-26T02:11:11.755Z,97960.80
2023-03-26T02:13:42.570Z,97962.00
2023-03-26T02:16:18.717Z,97956.00
2023-03-26T02:18:51.529Z,97953.00
2023-03-26T02:21:21.900Z,97950.20
2023-03-26T02:23:57.868Z,97951.20
2023-03-26T02:26:26.033Z,97953.60
2023-03-26T02:28:58.606Z,97952.40
2023-03-26T02:31:26.838Z,97946.40
2023-03-26T02:33:55.692Z,97945.00
2023-03-26T02:36:27.601Z,97944.20
2023-03-26T02:38:58.138Z,97940.80
2023-03-26T02:41:26.384Z,97943.80
2023-03-26T02:44:05.869Z,97940.60
2023-03-26T02:46:52.587Z,97939.20
2023-03-26T02:49:40.699Z,97940.80
2023-03-26T02:52:09.157Z,97946.40
2023-03-26T02:54:37.214Z,97937.00
2023-03-26T02:57:34.220Z,97945.40
2023-03-26T03:00:10.076Z,97940.20
2023-03-26T03:02:38.870Z,97945.40
2023-03-26T03:05:26.767Z,97950.80
2023-03-26T03:08:13.493Z,97948.20
2023-03-26T03:10:57.162Z,97944.60
2023-03-26T03:13:36.467Z,97942.60
2023-03-26T03:16:05.848Z,97939.20
2023-03-26T03:18:33.767Z,97940.80
2023-03-26T03:21:03.429Z,97935.20
2023-03-26T03:23:31.601Z,97939.20
2023-03-26T03:26:14.389Z,97940.40
2023-03-26T03:28:45.145Z,97935.60
2023-03-26T03:31:16.777Z,97938.60
2023-03-26T03:33:46.553Z,97939.80
2023-03-26T03:36:22.292Z,97940.20
2023-03-26T03:39:02.730Z,97936.80
2023-03-26T03:41:32.745Z,97934.20
2023-03-26T03:44:02.479Z,97936.60
2023-03-26T03:46:32.852Z,97938.60
2023-03-26T03:49:01.256Z,97942.40
2023-03-26T03:51:36.043Z,97940.80
2023-03-26T03:54:28.343Z,97941.20
2023-03-26T03:57:26.164Z,97941.20
2023-03-26T04:00:00.438Z,97934.60
2023-03-26T04:02:35.075Z,97939.00
2023-03-26T04:05:06.167Z,97939.60
2023-03-26T04:07:34.253Z,97935.20
2023-03-26T04:10:09.433Z,97939.80
2023-03-26T04:12:56.296Z,97937.20
2023-03-26T04:15:38.634Z,97935.00
2023-03-26T04:18:10.500Z,97933.40
2023-03-26T04:20:46.840Z,97927.00
2023-03-26T04:23:21.489Z,97931.80
2023-03-26T04:25:54.000Z,97932.00
2023-03-26T04:28:35.751Z,97929.40
2023-03-26T04:31:24.685Z,97930.00
2023-03-26T04:33:56.515Z,97925.80
2023-03-26T04:36:28.752Z,97930.20
2023-03-26T04:38:58.562Z,97925.20
2023-03-26T04:41:44.064Z,97923.20
2023-03-26T04:44:22.512Z,97919.00
2023-03-26T04:47:03.686Z,97915.20
2023-03-26T04:49:36.368Z,97913.40
2023-03-26T04:52:04.573Z,97910.60
2023-03-26T04:55:17.071Z,97911.00
2023-03-26T04:57:57.850Z,97909.80
2023-03-26T05:01:10.556Z,97915.40
2023-03-26T05:03:41.518Z,97917.60
2023-03-26T05:06:11.888Z,97919.60
2023-03-26T05:08:39.743Z,97913.60
2023-03-26T05:11:11.718Z,97918.00
2023-03-26T05:13:42.975Z,97920.80
2023-03-26T05:16:13.061Z,97920.40
2023-03-26T05:18:46.874Z,97921.40
2023-03-26T05:21:15.801Z,97927.00
2023-03-26T05:23:43.950Z,97925.40
2023-03-26T05:26:19.006Z,97921.60
2023-03-26T05:28:46.931Z,97921.20
2023-03-26T05:31:48.732Z,97917.20
2023-03-26T05:34:16.907Z,97914.00
2023-03-26T05:36:44.956Z,97916.60
2023-03-26T05:39:41.434Z,97917.00
2023-03-26T05:42:27.989Z,97917.20
2023-03-26T05:45:11.205Z,97915.40
2023-03-26T05:47:39.218Z,97916.20
2023-03-26T05:50:08.280Z,97920.00
2023-03-26T05:52:37.986Z,97912.80
2023-03-26T05:55:24.539Z,97916.40
2023-03-26T05:58:11.420Z,97915.20
2023-03-26T06:01:08.737Z,97917.80
2023-03-26T06:03:56.829Z,97917.40
2023-03-26T06:06:28.576Z,97911.60
2023-03-26T06:09:01.832Z,97913.40
2023-03-26T06:11:32.095Z,97920.40
2023-03-26T06:14:01.191Z,97919.00
2023-03-26T06:16:35.464Z,97918.60
2023-03-26T06:19:18.426Z,97919.00
2023-03-26T06:21:49.400Z,97923.20
2023-03-26T06:24:21.985Z,97924.80
2023-03-26T06:27:08.635Z,97916.60
2023-03-26T06:30:15.306Z,97916.60
2023-03-26T06:32:53.597Z,97917.20
2023-03-26T06:35:26.024Z,97922.00
2023-03-26T06:37:54.310Z,97926.00
2023-03-26T06:40:22.496Z,97923.60
2023-03-26T06:43:13.690Z,97920.60
2023-03-26T06:45:55.380Z,97919.40
2023-03-26T06:48:46.672Z,97928.80
2023-03-26T06:51:33.291Z,97917.40
2023-03-26T06:54:20.532Z,97918.20
2023-03-26T06:56:57.459Z,97911.80
2023-03-26T06:59:44.100Z,97913.20
2023-03-26T07:02:30.717Z,97916.20
2023-03-26T07:05:17.468Z,97927.00
2023-03-26T07:08:04.948Z,97921.20
2023-03-26T07:10:56.209Z,97921.20
2023-03-26T07:13:46.166Z,97920.40
2023-03-26T07:16:47.028Z,97926.60
2023-03-26T07:19:26.229Z,97927.80
2023-03-26T07:21:54.701Z,97930.40
2023-03-26T07:24:44.125Z,97929.80
2023-03-26T07:27:44.722Z,97929.40
2023-03-26T07:30:28.901Z,97931.20
2023-03-26T07:33:31.928Z,97930.20
2023-03-26T07:36:45.457Z,97933.80
2023-03-26T07:39:42.372Z,97930.60
2023-03-26T07:42:43.571Z,97929.20
2023-03-26T07:45:44.408Z,97930.60
2023-03-26T07:48:20.240Z,97929.60
2023-03-26T07:51:07.675Z,97925.60
2023-03-26T07:54:05.901Z,97927.40
2023-03-26T07:56:58.033Z,97925.00
2023-03-26T08:00:12.389Z,97926.60
2023-03-26T08:03:04.900Z,97934.60
2023-03-26T08:05:58.349Z,97926.40
2023-03-26T08:09:38.816Z,97948.60
2023-03-26T08:13:22.364Z,97954.20
2023-03-26T08:16:08.249Z,97956.00
2023-03-26T08:19:00.589Z,97953.60
2023-03-26T08:21:39.723Z,97957.60
2023-03-26T08:24:22.958Z,97960.40
2023-03-26T08:27:10.102Z,97956.40
2023-03-26T08:29:50.004Z,97957.60
2023-03-26T08:32:19.334Z,97955.00
2023-03-26T08:34:47.293Z,97948.80
2023-03-26T08:37:15.612Z,97951.80
2023-03-26T08:39:43.751Z,97945.60
2023-03-26T08:42:39.565Z,97949.60
2023-03-26T08:45:51.463Z,97936.40
2023-03-26T08:48:22.496Z,97939.20
2023-03-26T08:51:17.449Z,97939.80
2023-03-26T08:54:10.139Z,97934.80
2023-03-26T08:57:12.428Z,97932.80
2023-03-26T08:59:59.714Z,97928.60
2023-03-26T09:02:57.533Z,97931.40
2023-03-26T09:06:10.133Z,97925.60
2023-03-26T09:09:09.300Z,97924.40
2023-03-26T09:12:18.326Z,97921.40
2023-03-26T09:15:17.760Z,97923.20
2023-03-26T09:18:10.127Z,97908.40
2023-03-26T09:21:11.956Z,97898.40
2023-03-26T09:24:27.818Z,97900.00
2023-03-26T09:27:39.565Z,97897.80
2023-03-26T09:30:26.790Z,97904.60
2023-03-26T09:33:43.266Z,97924.80
2023-03-26T09:36:33.549Z,97925.00
2023-03-26T09:39:23.707Z,97933.20
2023-03-26T09:42:15.642Z,97932.60
2023-03-26T09:44:58.707Z,97945.00
2023-03-26T09:48:28.069Z,97954.40
2023-03-26T09:51:21.764Z,97945.20
2023-03-26T09:54:18.232Z,97937.20
2023-03-26T09:57:11.540Z,97945.00
2023-03-26T10:00:13.596Z,97956.00
2023-03-26T10:03:08.897Z,97948.60
2023-03-26T10:05:55.470Z,97946.60
2023-03-26T10:08:25.072Z,97945.60
2023-03-26T10:11:22.957Z,97939.60
2023-03-26T10:14:26.144Z,97947.20
2023-03-26T10:17:35.810Z,97939.20
2023-03-26T10:20:19.765Z,97939.00
2023-03-26T10:23:14.087Z,97940.80
2023-03-26T10:26:18.951Z,97937.20
2023-03-26T10:29:08.306Z,97937.40
2023-03-26T10:31:43.391Z,97936.40
2023-03-26T10:34:28.118Z,97929.80
2023-03-26T10:37:16.306Z,97934.20
2023-03-26T10:40:02.066Z,97924.80
2023-03-26T10:43:26.381Z,97925.00
2023-03-26T10:46:31.926Z,97927.40
2023-03-26T10:49:50.042Z,97927.60
2023-03-26T10:52:23.605Z,97932.60
2023-03-26T10:55:13.504Z,97925.80
2023-03-26T10:57:58.259Z,97936.00
2023-03-26T11:00:29.003Z,97946.60
2023-03-26T11:03:24.475Z,97952.80
2023-03-26T11:06:11.715Z,97978.80
2023-03-26T11:08:49.813Z,97981.40
2023-03-26T11:11:31.840Z,97973.00
2023-03-26T11:14:02.423Z,97969.60
2023-03-26T11:17:39.791Z,97962.00
2023-03-26T11:20:31.278Z,97954.80
2023-03-26T11:23:36.635Z,97957.40
2023-03-26T11:26:14.236Z,97948.60
2023-03-26T11:29:03.425Z,97946.60
2023-03-26T11:32:11.793Z,97940.40
2023-03-26T11:34:50.960Z,97937.80
2023-03-26T11:37:27.516Z,97933.00
2023-03-26T11:39:56.944Z,97925.20
2023-03-26T11:42:25.573Z,97925.60
2023-03-26T11:44:59.879Z,97917.80
2023-03-26T11:47:59.732Z,97916.80
2023-03-26T11:50:29.685Z,97919.00
2023-03-26T11:52:59.349Z,97907.20
2023-03-26T11:55:27.702Z,97907.20
2023-03-26T11:57:57.463Z,97900.80
2023-03-26T12:00:27.764Z,97908.20
2023-03-26T12:02:58.159Z,97904.80
2023-03-26T12:05:31.642Z,97895.00
2023-03-26T12:08:04.425Z,97895.20
2023-03-26T12:10:38.076Z,97899.80
2023-03-26T12:13:30.484Z,97894.20
2023-03-26T12:16:08.935Z,97881.40
2023-03-26T12:18:37.237Z,97890.20
2023-03-26T12:21:18.036Z,97892.20
2023-03-26T12:24:04.650Z,97889.80
2023-03-26T12:26:42.810Z,97875.60
2023-03-26T12:29:13.548Z,97886.40
2023-03-26T12:31:53.292Z,97878.40
2023-03-26T12:34:43.037Z,97870.40
2023-03-26T12:37:37.548Z,97874.40
2023-03-26T12:40:35.908Z,97879.00
2023-03-26T12:44:56.033Z,97869.80
2023-03-26T12:47:45.834Z,97874.60
2023-03-26T12:48:48.038Z,97878.20
2023-03-26T12:51:38.228Z,97872.40
2023-03-26T12:54:17.458Z,97875.40
2023-03-26T12:57:11.737Z,97876.00
2023-03-26T12:59:56.612Z,97872.00
2023-03-26T13:03:01.626Z,97869.60
2023-03-26T13:05:57.714Z,97869.60
2023-03-26T13:09:05.084Z,97871.60
2023-03-26T13:11:51.403Z,97869.60
2023-03-26T13:14:34.794Z,97858.40
2023-03-26T13:17:11.659Z,97861.20
2023-03-26T13:19:48.151Z,97859.00
2023-03-26T13:22:51.580Z,97855.80
2023-03-26T13:25:34.882Z,97851.40
2023-03-26T13:28:30.941Z,97849.60
2023-03-26T13:31:23.858Z,97858.60
2023-03-26T13:34:19.296Z,97852.20
2023-03-26T13:37:00.605Z,97852.60
2023-03-26T13:39:50.156Z,97841.40
2023-03-26T13:42:42.930Z,97845.40
2023-03-26T13:45:24.770Z,97829.80
2023-03-26T13:47:55.509Z,97835.20
2023-03-26T13:50:34.068Z,97833.20
2023-03-26T13:53:24.886Z,97834.20
2023-03-26T13:55:59.287Z,97842.20
2023-03-26T13:58:42.541Z,97854.60
2023-03-26T14:01:17.304Z,97856.80
2023-03-26T14:04:08.309Z,97865.20
2023-03-26T14:06:54.173Z,97871.60
2023-03-26T14:09:30.671Z,97871.20
2023-03-26T14:12:35.318Z,97873.00
2023-03-26T14:15:10.885Z,97860.60
2023-03-26T14:17:48.783Z,97861.80
2023-03-26T14:20:22.441Z,97865.80
2023-03-26T14:23:25.742Z,97872.60
2023-03-26T14:26:14.804Z,97866.40
2023-03-26T14:29:04.590Z,97857.80
2023-03-26T14:31:49.714Z,97857.60
2023-03-26T14:34:42.832Z,97855.40
2023-03-26T14:37:53.793Z,97857.60
2023-03-26T14:40:33.855Z,97863.00
2023-03-26T14:43:18.526Z,97858.00
2023-03-26T14:46:27.585Z,97851.60
2023-03-26T14:49:26.633Z,97848.60
2023-03-26T14:52:27.586Z,97849.00
2023-03-26T14:54:58.025Z,97856.00
2023-03-26T14:58:16.025Z,97845.80
2023-03-26T15:01:13.338Z,97839.20
2023-03-26T15:04:25.115Z,97837.20
2023-03-26T15:07:27.722Z,97842.20
2023-03-26T15:10:25.618Z,97841.00
2023-03-26T15:13:36.721Z,97840.00
2023-03-26T15:16:28.123Z,97842.80
2023-03-26T15:19:40.972Z,97834.60
2023-03-26T15:22:28.026Z,97836.60
2023-03-26T15:25:43.711Z,97837.40
2023-03-26T15:28:46.566Z,97839.40
2023-03-26T15:31:40.950Z,97833.20
2023-03-26T15:34:39.967Z,97832.00
2023-03-26T15:37:50.358Z,97833.20
2023-03-26T15:40:36.723Z,97832.80
2023-03-26T15:43:20.200Z,97835.20
2023-03-26T15:45:53.934Z,97829.60
2023-03-26T15:48:36.678Z,97835.40
2023-03-26T15:51:46.888Z,97834.80
2023-03-26T15:54:22.871Z,97822.60
2023-03-26T15:57:44.324Z,97831.60
2023-03-26T16:00:19.241Z,97827.60
2023-03-26T16:03:11.834Z,97833.20
2023-03-26T16:06:31.147Z,97835.20
2023-03-26T16:09:45.733Z,97835.20
2023-03-26T16:12:16.761Z,97833.20
2023-03-26T16:15:05.803Z,97838.20
2023-03-26T16:18:25.575Z,97836.20
2023-03-26T16:21:38.931Z,97835.80
2023-03-26T16:24:07.440Z,97836.60
2023-03-26T16:26:44.281Z,97838.20
2023-03-26T16:29:26.817Z,97836.00
2023-03-26T16:32:18.989Z,97840.60
2023-03-26T16:35:02.116Z,97844.20
2023-03-26T16:37:39.910Z,97845.60
2023-03-26T16:40:17.199Z,97848.60
2023-03-26T16:42:51.798Z,97843.40
2023-03-26T16:45:57.389Z,97845.00
2023-03-26T16:49:10.680Z,97840.80
2023-03-26T16:52:20.593Z,97839.80
2023-03-26T16:55:11.555Z,97840.20
2023-03-26T16:57:53.147Z,97841.00
2023-03-26T17:00:49.649Z,97835.60
2023-03-26T17:03:38.857Z,97837.40
2023-03-26T17:06:20.981Z,97836.40
2023-03-26T17:09:23.614Z,97831.60
2023-03-26T17:12:56.296Z,97842.40
2023-03-26T17:15:53.540Z,97836.20
2023-03-26T17:18:43.630Z,97838.60
2023-03-26T17:21:46.744Z,97836.80
2023-03-26T17:24:40.736Z,97839.00
2023-03-26T17:27:58.760Z,97836.80
2023-03-26T17:30:54.851Z,97840.80
2023-03-26T17:33:31.272Z,97838.80
2023-03-26T17:36:41.222Z,97835.80
2023-03-26T17:39:21.583Z,97839.40
2023-03-26T17:41:54.440Z,97833.80
2023-03-26T17:44:44.168Z,97835.20
2023-03-26T17:47:22.668Z,97842.00
2023-03-26T17:49:55.510Z,97836.20
2023-03-26T17:52:51.939Z,97838.20
2023-03-26T17:55:22.216Z,97838.80
2023-03-26T17:57:53.688Z,97834.80
2023-03-26T18:00:25.309Z,97837.60
2023-03-26T18:02:57.313Z,97836.20
2023-03-26T18:05:29.160Z,97835.40
2023-03-26T18:08:37.219Z,97835.40
2023-03-26T18:11:38.168Z,97835.60
2023-03-26T18:14:47.652Z,97834.00
2023-03-26T18:17:15.445Z,97831.20
2023-03-26T18:19:52.483Z,97833.60
2023-03-26T18:22:24.778Z,97835.60
2023-03-26T18:24:56.100Z,97835.40
2023-03-26T18:27:24.033Z,97829.20
2023-03-26T18:30:01.656Z,97829.20
2023-03-26T18:32:33.669Z,97822.80
2023-03-26T18:35:18.783Z,97824.60
2023-03-26T18:37:49.247Z,97821.80
2023-03-26T18:40:21.501Z,97826.80
2023-03-26T18:42:55.342Z,97821.60
2023-03-26T18:45:23.404Z,97825.40
2023-03-26T18:47:57.316Z,97824.60
2023-03-26T18:50:37.232Z,97816.40
2023-03-26T18:53:21.061Z,97813.00
2023-03-26T18:55:50.652Z,97805.60
2023-03-26T18:58:34.440Z,97809.40
2023-03-26T19:01:04.969Z,97803.20
2023-03-26T19:03:35.628Z,97802.40
2023-03-26T19:06:04.759Z,97803.80
2023-03-26T19:08:35.461Z,97799.60
2023-03-26T19:11:04.942Z,97794.20
2023-03-26T19:13:33.735Z,97794.80
2023-03-26T19:16:06.129Z,97791.20
2023-03-26T19:18:36.279Z,97790.00
2023-03-26T19:21:04.648Z,97793.80
2023-03-26T19:23:36.297Z,97795.80
2023-03-26T19:26:06.734Z,97789.00
2023-03-26T19:28:49.310Z,97793.40
2023-03-26T19:31:22.529Z,97795.60
2023-03-26T19:33:59.701Z,97787.20
2023-03-26T19:36:31.755Z,97783.60
2023-03-26T19:38:59.646Z,97775.60
2023-03-26T19:41:36.636Z,97782.20
2023-03-26T19:44:28.651Z,97778.00
2023-03-26T19:47:31.843Z,97779.60
2023-03-26T19:50:23.431Z,97781.00
2023-03-26T19:53:17.722Z,97778.80
2023-03-26T19:55:56.568Z,97779.40
2023-03-26T19:58:27.482Z,97781.20
2023-03-26T20:00:58.860Z,97772.40
2023-03-26T20:03:30.595Z,97776.60
2023-03-26T20:05:59.644Z,97775.60
2023-03-26T20:08:27.984Z,97771.20
2023-03-26T20:10:56.682Z,97764.60
2023-03-26T20:13:24.691Z,97759.40
2023-03-26T20:16:06.027Z,97755.20
2023-03-26T20:18:35.143Z,97755.60
2023-03-26T20:21:10.863Z,97750.80
2023-03-26T20:23:40.366Z,97752.60
2023-03-26T20:26:15.889Z,97747.00
2023-03-26T20:28:48.374Z,97745.60
2023-03-26T20:31:25.363Z,97748.60
2023-03-26T20:33:53.892Z,97745.20
2023-03-26T20:36:33.648Z,97739.80
2023-03-26T20:39:07.821Z,97733.00
2023-03-26T20:41:38.224Z,97727.40
2023-03-26T20:44:13.721Z,97725.80
2023-03-26T20:46:43.423Z,97728.60
2023-03-26T20:49:11.952Z,97730.00
2023-03-26T20:51:41.992Z,97733.40
2023-03-26T20:54:24.344Z,97730.80
2023-03-26T20:56:53.517Z,97732.20
2023-03-26T20:59:28.840Z,97727.60
2023-03-26T21:01:57.812Z,97728.20
2023-03-26T21:04:26.741Z,97730.40
2023-03-26T21:07:00.239Z,97734.80
2023-03-26T21:09:35.778Z,97742.80
2023-03-26T21:12:28.137Z,97738.20
2023-03-26T21:14:57.272Z,97733.80
2023-03-26T21:17:26.334Z,97732.40
2023-03-26T21:19:55.027Z,97729.80
2023-03-26T21:22:49.532Z,97735.00
2023-03-26T21:25:53.286Z,97726.20
2023-03-26T21:28:42.505Z,97722.60
2023-03-26T21:31:20.484Z,97721.20
2023-03-26T21:33:49.565Z,97724.60
2023-03-26T21:36:19.907Z,97727.80
2023-03-26T21:38:50.613Z,97727.20
2023-03-26T21:41:24.455Z,97734.60
2023-03-26T21:43:52.328Z,97736.80
2023-03-26T21:46:20.796Z,97743.20
2023-03-26T21:48:49.133Z,97739.00
2023-03-26T21:51:17.821Z,97736.00
2023-03-26T21:53:46.600Z,97723.20
2023-03-26T21:56:39.584Z,97725.20
2023-03-26T21:59:36.758Z,97723.20
2023-03-26T22:02:24.211Z,97724.00
2023-03-26T22:04:57.260Z,97723.40
2023-03-26T22:07:53.405Z,97719.20
2023-03-26T22:10:21.620Z,97722.80
2023-03-26T22:12:49.613Z,97720.40
2023-03-26T22:15:18.579Z,97716.80
2023-03-26T22:17:54.154Z,97716.60
2023-03-26T22:20:25.212Z,97715.60
2023-03-26T22:22:55.358Z,97711.60
2023-03-26T22:25:23.730Z,97706.00
2023-03-26T22:27:51.747Z,97702.60
2023-03-26T22:30:23.028Z,97707.40
2023-03-26T22:32:51.929Z,97704.60
2023-03-26T22:35:19.893Z,97697.00
2023-03-26T22:37:48.498Z,97700.80
2023-03-26T22:40:18.006Z,97699.40
2023-03-26T22:42:46.170Z,97701.00
2023-03-26T22:45:14.121Z,97707.60
2023-03-26T22:47:42.210Z,97704.20
2023-03-26T22:50:10.875Z,97702.40
2023-03-26T22:52:40.794Z,97704.60
2023-03-26T22:55:11.049Z,97709.00
2023-03-26T22:57:39.431Z,97705.00
2023-03-26T23:00:19.726Z,97707.00
2023-03-26T23:02:47.616Z,97710.20
2023-03-26T23:05:18.778Z,97713.20
2023-03-26T23:07:46.653Z,97713.20
2023-03-26T23:10:14.541Z,97709.80
2023-03-26T23:12:42.537Z,97711.80
2023-03-26T23:15:11.288Z,97702.60
2023-03-26T23:17:39.538Z,97704.80
2023-03-26T23:20:15.379Z,97699.80
2023-03-26T23:22:43.984Z,97696.00
2023-03-26T23:25:11.914Z,97694.00
2023-03-26T23:27:41.597Z,97694.40
2023-03-26T23:30:11.046Z,97691.60
2023-03-26T23:32:39.044Z,97690.80
2023-03-26T23:35:07.534Z,97697.00
2023-03-26T23:37:35.577Z,97693.40
2023-03-26T23:40:10.263Z,97690.80
2023-03-26T23:42:38.401Z,97687.80
2023-03-26T23:45:08.513Z,97682.40
2023-03-26T23:47:37.359Z,97687.40
2023-03-26T23:50:06.382Z,97679.80
2023-03-26T23:52:34.118Z,97679.00
2023-03-26T23:55:02.145Z,97675.00
2023-03-26T23:57:30.655Z,97671.60
2023-03-26T23:59:58.487Z,97669.20
